RRR4183 LIMC-DAAG
Flight info
| Callsign | RRR4183 |
|---|---|
| Flight time | N/A |
| Altitude | 31000 |
| Route | DOGUB6TXNEDED6I/35R NEDED DCT GEKBA DCT VAMTU DCT KOLON DCT GANGU DCT PADKO DCT VATIR N852 GENIO N855 BUYAH |
| Aircraft | A400/H-SDE2E3FGHIJ4J5M1RWXYZ/L4T |
Departure
| Time | N/A |
|---|---|
| Airport | Milan Malpensa International Airport (LIMC) |
Arrival
| Time | 2026-05-05 17:50 |
|---|---|
| Airport | Houari Boumediene Airport (DAAG) |
| Time | Latitude | Longitude | Altitude | Speed | Heading |
|---|---|---|---|---|---|
| 2026-05-05 17:47 | 36.68890 | 3.30437 | 1582 ft | 161 kts | 273° |
| 2026-05-05 17:47 | 36.68923 | 3.29046 | 1369 ft | 160 kts | 272° |
| 2026-05-05 17:47 | 36.68955 | 3.27687 | 1158 ft | 150 kts | 273° |
| 2026-05-05 17:48 | 36.68993 | 3.26050 | 906 ft | 138 kts | 273° |
| 2026-05-05 17:48 | 36.69012 | 3.25263 | 787 ft | 136 kts | 272° |
| 2026-05-05 17:48 | 36.69051 | 3.23690 | 558 ft | 136 kts | 272° |
| 2026-05-05 17:48 | 36.69071 | 3.22520 | 390 ft | 135 kts | 272° |
| 2026-05-05 17:49 | 36.69086 | 3.21744 | 263 ft | 134 kts | 272° |
| 2026-05-05 17:49 | 36.69119 | 3.20587 | 115 ft | 133 kts | 274° |
| 2026-05-05 17:49 | 36.69150 | 3.19497 | 103 ft | 119 kts | 271° |
| 2026-05-05 17:50 | 36.69179 | 3.18460 | 107 ft | 19 kts | 289° |
| 2026-05-05 17:50 | 36.69295 | 3.18429 | 95 ft | 15 kts | 3° |
| 2026-05-05 17:50 | 36.69336 | 3.18462 | 99 ft | 1 kts | 88° |
| 2026-05-05 17:50 | 36.69337 | 3.18490 | 96 ft | 5 kts | 86° |
| 2026-05-05 17:51 | 36.69339 | 3.18551 | 92 ft | 9 kts | 92° |
| 2026-05-05 17:51 | 36.69336 | 3.18639 | 91 ft | 11 kts | 92° |
| 2026-05-05 17:51 | 36.69333 | 3.18748 | 95 ft | 14 kts | 91° |
| 2026-05-05 17:51 | 36.69332 | 3.18832 | 95 ft | 15 kts | 91° |
| 2026-05-05 17:52 | 36.69329 | 3.18973 | 93 ft | 17 kts | 91° |
| 2026-05-05 17:52 | 36.69327 | 3.19077 | 91 ft | 18 kts | 92° |
| 2026-05-05 17:52 | 36.69321 | 3.19352 | 95 ft | 20 kts | 91° |